Time;durP1;ratioP1;P1;durP2;ratioP2;P2;SDS_P1;SDS_P2;PMS_P1;PMS_P2;Temp;Humidity;BMP_temperature;BMP_pressure;BME280_temperature;BME280_humidity;BME280_pressure;Samples;Min_cycle;Max_cycle;Signal;HPM_P1;HPM_P2
2022/10/07 00:00:00;;;;;;;3.83;1.95;;;;;;;;;;6145315;23;20096;-74
2022/10/07 00:02:45;;;;;;;7.45;2.72;;;;;;;;;;6145623;23;20020;-74
2022/10/07 00:05:31;;;;;;;5.35;2.67;;;;;;;;;;6144691;23;20443;-73
2022/10/07 00:08:16;;;;;;;7.50;2.95;;;;;;;;;;6146025;23;20013;-75
2022/10/07 00:11:07;;;;;;;12.52;3.67;;;;;;;;;;6143943;23;20013;-73
2022/10/07 00:13:57;;;;;;;25.63;3.47;;;;;;;;;;6124264;23;20045;-74
2022/10/07 00:16:43;;;;;;;5.03;2.45;;;;;;;;;;6146411;23;20451;-71
2022/10/07 00:19:28;;;;;;;5.18;2.92;;;;;;;;;;6146403;23;20013;-71
2022/10/07 00:22:14;;;;;;;5.95;2.70;;;;;;;;;;6149564;23;20054;-71
2022/10/07 00:25:00;;;;;;;7.55;2.60;;;;;;;;;;6150072;22;20010;-69
2022/10/07 00:27:45;;;;;;;5.90;2.17;;;;;;;;;;6145159;23;20329;-70
2022/10/07 00:30:31;;;;;;;7.47;2.28;;;;;;;;;;6146366;23;20554;-71
2022/10/07 00:33:17;;;;;;;7.45;2.80;;;;;;;;;;6144963;23;20021;-74
2022/10/07 00:36:16;;;;;;;5.25;2.65;;;;;;;;;;6143942;23;20025;-74
2022/10/07 00:39:07;;;;;;;6.15;2.53;;;;;;;;;;6146610;23;20093;-73
2022/10/07 00:41:52;;;;;;;9.57;2.53;;;;;;;;;;6146334;23;20014;-73
2022/10/07 00:44:40;;;;;;;8.70;2.80;;;;;;;;;;6146245;23;20010;-75
2022/10/07 00:47:30;;;;;;;10.52;2.50;;;;;;;;;;6146583;23;20021;-73
2022/10/07 00:50:19;;;;;;;6.75;2.53;;;;;;;;;;6146340;23;20005;-73
2022/10/07 00:53:04;;;;;;;5.57;2.22;;;;;;;;;;6124431;23;20052;-70
2022/10/07 00:55:50;;;;;;;9.80;2.50;;;;;;;;;;6151862;23;20500;-70
2022/10/07 00:58:36;;;;;;;5.47;2.42;;;;;;;;;;6145603;23;20455;-71
2022/10/07 01:01:23;;;;;;;4.80;1.92;;;;;;;;;;6127886;23;20049;-71
2022/10/07 01:04:09;;;;;;;6.82;1.98;;;;;;;;;;6144525;23;20401;-70
2022/10/07 01:06:55;;;;;;;7.72;2.45;;;;;;;;;;6144762;23;20014;-74
2022/10/07 01:09:41;;;;;;;7.35;2.30;;;;;;;;;;6144620;23;20013;-70
2022/10/07 01:12:27;;;;;;;8.88;3.22;;;;;;;;;;6146858;23;20009;-71
2022/10/07 01:15:15;;;;;;;5.93;2.65;;;;;;;;;;6144052;23;20084;-71
2022/10/07 01:18:20;;;;;;;6.50;2.33;;;;;;;;;;6145623;23;20017;-71
2022/10/07 01:21:19;;;;;;;7.70;1.90;;;;;;;;;;6146290;23;20056;-70
2022/10/07 01:24:27;;;;;;;5.20;2.15;;;;;;;;;;6145387;23;20010;-72
2022/10/07 01:27:14;;;;;;;5.35;2.25;;;;;;;;;;6152123;23;20023;-73
2022/10/07 01:30:02;;;;;;;6.72;2.40;;;;;;;;;;6146916;23;20020;-70
2022/10/07 01:32:58;;;;;;;5.30;2.40;;;;;;;;;;6145071;23;20010;-70
2022/10/07 01:35:45;;;;;;;7.93;2.53;;;;;;;;;;6145644;23;20010;-70
2022/10/07 01:38:32;;;;;;;6.95;2.22;;;;;;;;;;6146475;23;20010;-70
2022/10/07 01:41:18;;;;;;;6.75;2.60;;;;;;;;;;6124159;23;20074;-70
2022/10/07 01:44:05;;;;;;;6.25;2.50;;;;;;;;;;6144596;23;20459;-75
2022/10/07 01:46:50;;;;;;;6.50;2.28;;;;;;;;;;6124721;23;20416;-74
2022/10/07 01:49:36;;;;;;;3.50;1.92;;;;;;;;;;6131700;23;20016;-75
2022/10/07 01:52:35;;;;;;;9.98;2.08;;;;;;;;;;6132356;22;20379;-74
2022/10/07 01:55:43;;;;;;;8.07;2.42;;;;;;;;;;6146757;23;20013;-74
2022/10/07 01:58:28;;;;;;;6.03;2.00;;;;;;;;;;6149204;23;20010;-76
2022/10/07 02:01:14;;;;;;;5.88;2.25;;;;;;;;;;6125984;23;20008;-75
2022/10/07 02:04:06;;;;;;;4.47;2.38;;;;;;;;;;6125443;23;20771;-72
2022/10/07 02:07:11;;;;;;;7.45;1.70;;;;;;;;;;6124442;23;20013;-69
2022/10/07 02:10:11;;;;;;;4.60;2.00;;;;;;;;;;6143952;23;20006;-70
2022/10/07 02:13:08;;;;;;;5.30;2.30;;;;;;;;;;6146977;23;20017;-69
2022/10/07 02:15:59;;;;;;;5.13;2.33;;;;;;;;;;6145894;23;20059;-70
2022/10/07 02:18:47;;;;;;;5.82;2.17;;;;;;;;;;6145143;23;20425;-71
2022/10/07 02:21:35;;;;;;;6.90;2.90;;;;;;;;;;6144805;23;20024;-73
2022/10/07 02:24:23;;;;;;;8.25;2.42;;;;;;;;;;6145492;23;20336;-70
2022/10/07 02:27:11;;;;;;;5.88;2.17;;;;;;;;;;6145212;23;20066;-67
2022/10/07 02:29:59;;;;;;;5.93;2.28;;;;;;;;;;6147416;23;20004;-66
2022/10/07 02:32:47;;;;;;;6.10;2.25;;;;;;;;;;6148569;23;20090;-68
2022/10/07 02:35:38;;;;;;;4.35;2.20;;;;;;;;;;6146133;23;20009;-68
2022/10/07 02:38:25;;;;;;;8.38;2.50;;;;;;;;;;6143918;23;20016;-69
2022/10/07 02:41:34;;;;;;;5.57;2.55;;;;;;;;;;6122852;23;20017;-70
2022/10/07 02:44:27;;;;;;;9.57;2.47;;;;;;;;;;6144691;23;20859;-70
2022/10/07 02:47:13;;;;;;;9.25;2.78;;;;;;;;;;6145766;23;20017;-70
2022/10/07 02:50:00;;;;;;;6.05;2.13;;;;;;;;;;6143871;23;20017;-71
2022/10/07 02:52:45;;;;;;;7.47;2.78;;;;;;;;;;6144732;23;20005;-71
2022/10/07 02:55:32;;;;;;;7.10;2.47;;;;;;;;;;6123522;23;20025;-71
2022/10/07 02:58:19;;;;;;;4.47;2.22;;;;;;;;;;6145374;23;20064;-70
2022/10/07 03:01:06;;;;;;;6.93;2.78;;;;;;;;;;6144808;23;20009;-69
2022/10/07 03:03:53;;;;;;;4.57;2.10;;;;;;;;;;6151726;23;20010;-70
2022/10/07 03:06:41;;;;;;;6.28;2.20;;;;;;;;;;6123870;23;20096;-69
2022/10/07 03:09:27;;;;;;;7.32;2.25;;;;;;;;;;6144483;23;20020;-71
2022/10/07 03:12:12;;;;;;;9.70;2.45;;;;;;;;;;6145182;23;20058;-69
2022/10/07 03:14:58;;;;;;;6.25;2.25;;;;;;;;;;6145118;23;20092;-69
2022/10/07 03:17:43;;;;;;;7.63;2.63;;;;;;;;;;6144505;23;20397;-79
2022/10/07 03:20:31;;;;;;;3.90;2.58;;;;;;;;;;6145589;23;20013;-75
2022/10/07 03:23:16;;;;;;;6.53;2.63;;;;;;;;;;6148889;22;20368;-75
2022/10/07 03:26:02;;;;;;;6.80;2.22;;;;;;;;;;6147356;23;20095;-74
2022/10/07 03:28:48;;;;;;;10.95;2.88;;;;;;;;;;6148035;23;20020;-74
2022/10/07 03:31:33;;;;;;;7.65;2.28;;;;;;;;;;6144008;23;20135;-74
2022/10/07 03:34:19;;;;;;;5.95;2.20;;;;;;;;;;6149944;23;20303;-68
2022/10/07 03:37:05;;;;;;;8.30;2.90;;;;;;;;;;6149244;23;20420;-70
2022/10/07 03:39:52;;;;;;;7.45;2.40;;;;;;;;;;6146520;23;20010;-70
2022/10/07 03:42:38;;;;;;;7.68;2.10;;;;;;;;;;6148426;23;20013;-71
2022/10/07 03:45:23;;;;;;;6.47;2.80;;;;;;;;;;6145726;23;20034;-70
2022/10/07 03:48:09;;;;;;;7.40;2.42;;;;;;;;;;6145185;23;20092;-70
2022/10/07 03:50:56;;;;;;;6.47;2.70;;;;;;;;;;6146537;23;20112;-71
2022/10/07 03:53:42;;;;;;;6.78;2.97;;;;;;;;;;6147800;23;20040;-71
2022/10/07 03:56:27;;;;;;;9.30;2.53;;;;;;;;;;6145625;23;20074;-74
2022/10/07 03:59:13;;;;;;;6.30;2.70;;;;;;;;;;6144976;23;20444;-74
2022/10/07 04:01:58;;;;;;;6.25;2.10;;;;;;;;;;6145137;23;20016;-73
2022/10/07 04:04:44;;;;;;;7.00;2.40;;;;;;;;;;6145977;23;20013;-75
2022/10/07 04:07:29;;;;;;;7.75;2.25;;;;;;;;;;6152512;23;20020;-74
2022/10/07 04:10:15;;;;;;;20.08;2.78;;;;;;;;;;6148002;23;20013;-73
2022/10/07 04:13:01;;;;;;;6.22;2.33;;;;;;;;;;6148678;23;20002;-71
2022/10/07 04:15:47;;;;;;;10.90;3.08;;;;;;;;;;6126181;23;20013;-71
2022/10/07 04:18:33;;;;;;;5.90;2.83;;;;;;;;;;6147636;22;20016;-70
2022/10/07 04:21:18;;;;;;;6.72;2.67;;;;;;;;;;6145702;23;20094;-70
2022/10/07 04:24:04;;;;;;;6.75;2.50;;;;;;;;;;6145474;23;20059;-69
2022/10/07 04:26:49;;;;;;;8.23;2.53;;;;;;;;;;6146290;22;20005;-71
2022/10/07 04:29:35;;;;;;;8.70;2.30;;;;;;;;;;6145606;23;20494;-69
2022/10/07 04:32:21;;;;;;;3.67;2.35;;;;;;;;;;6144553;23;20013;-71
2022/10/07 04:35:06;;;;;;;6.28;2.58;;;;;;;;;;6145352;23;20429;-70
2022/10/07 04:37:52;;;;;;;10.38;2.75;;;;;;;;;;6149370;23;20009;-71
2022/10/07 04:40:39;;;;;;;6.40;2.28;;;;;;;;;;6127693;23;20024;-73
2022/10/07 04:43:26;;;;;;;6.55;2.58;;;;;;;;;;6146766;23;20463;-71
2022/10/07 04:46:15;;;;;;;4.90;2.22;;;;;;;;;;6147174;23;20023;-70
2022/10/07 04:49:00;;;;;;;7.57;3.05;;;;;;;;;;6143746;23;20463;-71
2022/10/07 04:51:46;;;;;;;4.80;2.22;;;;;;;;;;6145332;23;20092;-72
2022/10/07 04:54:33;;;;;;;5.18;2.30;;;;;;;;;;6144279;23;20013;-71
2022/10/07 04:57:18;;;;;;;6.03;2.67;;;;;;;;;;6146892;23;20092;-71
2022/10/07 05:00:05;;;;;;;7.88;2.60;;;;;;;;;;6147984;22;20014;-72
2022/10/07 05:02:50;;;;;;;6.70;2.42;;;;;;;;;;6146246;23;20367;-71
2022/10/07 05:05:39;;;;;;;7.43;2.30;;;;;;;;;;6144758;23;20016;-69
2022/10/07 05:08:24;;;;;;;4.82;2.40;;;;;;;;;;6145721;23;20021;-80
2022/10/07 05:11:10;;;;;;;10.63;3.00;;;;;;;;;;6153337;23;20012;-72
2022/10/07 05:13:57;;;;;;;10.60;2.97;;;;;;;;;;6125163;23;20009;-72
2022/10/07 05:16:43;;;;;;;4.57;2.60;;;;;;;;;;6125669;23;20020;-72
2022/10/07 05:19:29;;;;;;;9.82;2.45;;;;;;;;;;6146004;23;20018;-72
2022/10/07 05:22:14;;;;;;;7.10;2.60;;;;;;;;;;6145959;23;20386;-72
2022/10/07 05:25:00;;;;;;;5.93;2.50;;;;;;;;;;6144105;23;20016;-71
2022/10/07 05:27:50;;;;;;;4.78;2.20;;;;;;;;;;6144691;23;20362;-71
2022/10/07 05:30:36;;;;;;;6.20;2.33;;;;;;;;;;6144686;23;20010;-71
2022/10/07 05:33:22;;;;;;;4.05;2.15;;;;;;;;;;6146730;23;20330;-70
2022/10/07 05:36:08;;;;;;;10.43;3.10;;;;;;;;;;6146412;23;20001;-71
2022/10/07 05:38:56;;;;;;;7.80;2.70;;;;;;;;;;6144416;23;20433;-71
2022/10/07 05:41:42;;;;;;;6.70;3.10;;;;;;;;;;6148709;23;20017;-72
2022/10/07 05:44:31;;;;;;;8.43;2.67;;;;;;;;;;6150242;23;20010;-70
2022/10/07 05:47:17;;;;;;;7.78;2.58;;;;;;;;;;6145335;23;20429;-76
2022/10/07 05:50:03;;;;;;;5.68;2.67;;;;;;;;;;6144605;23;20009;-75
2022/10/07 05:52:50;;;;;;;9.13;2.75;;;;;;;;;;6124057;23;20017;-74
2022/10/07 05:55:37;;;;;;;6.40;2.45;;;;;;;;;;6145900;23;20063;-74
2022/10/07 05:58:22;;;;;;;10.43;2.83;;;;;;;;;;6144332;23;20017;-75
2022/10/07 06:01:12;;;;;;;10.80;3.20;;;;;;;;;;6145323;23;20063;-67
2022/10/07 06:03:58;;;;;;;8.85;3.03;;;;;;;;;;6144964;23;20009;-70
2022/10/07 06:06:43;;;;;;;6.50;3.20;;;;;;;;;;6146012;23;20013;-69
2022/10/07 06:15:44;;;;;;;6.53;3.03;;;;;;;;;;6153086;23;20002;-73
2022/10/07 06:18:30;;;;;;;9.13;3.20;;;;;;;;;;6123326;23;20416;-71
2022/10/07 06:21:16;;;;;;;7.60;3.10;;;;;;;;;;6146771;22;20059;-74
2022/10/07 06:24:01;;;;;;;5.05;2.33;;;;;;;;;;6144847;23;20014;-69
2022/10/07 06:26:47;;;;;;;8.07;2.97;;;;;;;;;;6145459;23;20451;-72
2022/10/07 06:29:33;;;;;;;9.65;3.30;;;;;;;;;;6125502;22;20014;-70
2022/10/07 06:32:18;;;;;;;8.75;2.95;;;;;;;;;;6144596;23;20006;-72
2022/10/07 06:35:06;;;;;;;6.63;2.88;;;;;;;;;;6143705;23;20010;-71
2022/10/07 06:37:52;;;;;;;7.00;2.95;;;;;;;;;;6145659;23;20027;-78
2022/10/07 06:40:38;;;;;;;8.60;3.33;;;;;;;;;;6123397;23;20020;-73
2022/10/07 06:43:25;;;;;;;11.68;5.07;;;;;;;;;;6145171;23;20376;-75
2022/10/07 06:46:13;;;;;;;12.38;5.28;;;;;;;;;;6148587;23;20065;-73
2022/10/07 06:48:58;;;;;;;7.97;3.63;;;;;;;;;;6148024;23;20087;-78
2022/10/07 06:51:45;;;;;;;8.60;2.70;;;;;;;;;;6124162;23;20067;-74
2022/10/07 06:54:31;;;;;;;6.18;2.70;;;;;;;;;;6146468;22;20013;-76
2022/10/07 06:57:16;;;;;;;8.13;3.15;;;;;;;;;;6147996;23;20325;-67
2022/10/07 07:00:03;;;;;;;9.18;2.78;;;;;;;;;;6126192;22;20313;-77
2022/10/07 07:02:49;;;;;;;7.72;3.35;;;;;;;;;;6146257;23;20437;-74
2022/10/07 07:05:36;;;;;;;8.68;2.67;;;;;;;;;;6143578;23;20017;-76
2022/10/07 07:08:23;;;;;;;8.63;3.05;;;;;;;;;;6147284;23;20013;-74
2022/10/07 07:14:34;;;;;;;8.10;2.85;;;;;;;;;;6239565;22;20015;-76
2022/10/07 07:17:20;;;;;;;6.70;2.45;;;;;;;;;;6237908;23;20051;-77
2022/10/07 07:20:06;;;;;;;8.80;3.47;;;;;;;;;;6246460;22;20031;-75
2022/10/07 07:22:51;;;;;;;9.18;3.05;;;;;;;;;;6239730;23;20008;-74
2022/10/07 07:25:38;;;;;;;6.40;2.70;;;;;;;;;;6239140;23;20062;-77
2022/10/07 07:28:23;;;;;;;9.73;3.63;;;;;;;;;;6237544;23;20020;-75
2022/10/07 07:31:11;;;;;;;8.75;3.90;;;;;;;;;;6238698;23;20459;-75
2022/10/07 07:33:59;;;;;;;10.15;3.60;;;;;;;;;;6240258;23;20050;-70
2022/10/07 07:36:46;;;;;;;11.73;3.50;;;;;;;;;;6238641;23;20379;-79
2022/10/07 07:39:32;;;;;;;8.85;3.58;;;;;;;;;;6238685;23;20020;-82
2022/10/07 07:42:17;;;;;;;13.73;3.45;;;;;;;;;;6237636;23;20019;-79
2022/10/07 07:45:04;;;;;;;9.52;4.00;;;;;;;;;;6190369;23;20018;-81
2022/10/07 07:47:49;;;;;;;10.60;3.42;;;;;;;;;;6150208;23;20329;-85
2022/10/07 07:50:38;;;;;;;6.93;2.90;;;;;;;;;;6152299;23;20002;-88
2022/10/07 07:53:23;;;;;;;10.55;3.38;;;;;;;;;;6126270;23;20002;-72
2022/10/07 07:56:10;;;;;;;7.93;3.13;;;;;;;;;;6148241;23;20558;-70
2022/10/07 07:58:55;;;;;;;10.65;4.68;;;;;;;;;;6146214;23;20052;-70
2022/10/07 08:01:42;;;;;;;7.88;3.53;;;;;;;;;;6124205;23;20077;-70
2022/10/07 08:04:28;;;;;;;7.72;3.38;;;;;;;;;;6147218;23;20016;-71
2022/10/07 08:07:14;;;;;;;7.82;3.53;;;;;;;;;;6146113;23;20056;-70
2022/10/07 08:10:00;;;;;;;6.18;3.40;;;;;;;;;;6143876;23;20371;-79
2022/10/07 08:12:45;;;;;;;7.72;3.28;;;;;;;;;;6124618;23;20015;-68
2022/10/07 08:15:31;;;;;;;8.95;2.92;;;;;;;;;;6144573;23;20037;-69
2022/10/07 08:18:17;;;;;;;8.70;3.03;;;;;;;;;;6123708;23;20139;-67
2022/10/07 08:21:04;;;;;;;12.02;3.40;;;;;;;;;;6145174;22;20428;-67
2022/10/07 08:23:53;;;;;;;8.77;3.72;;;;;;;;;;6153462;23;20006;-68
2022/10/07 08:26:39;;;;;;;10.68;3.17;;;;;;;;;;6146069;23;20040;-66
2022/10/07 08:29:25;;;;;;;7.63;2.97;;;;;;;;;;6145846;23;20009;-76
2022/10/07 08:32:10;;;;;;;10.07;3.30;;;;;;;;;;6145124;23;20052;-77
2022/10/07 08:34:56;;;;;;;6.30;3.15;;;;;;;;;;6147868;23;20014;-76
2022/10/07 08:37:42;;;;;;;9.68;3.50;;;;;;;;;;6143553;23;20062;-77
2022/10/07 08:40:27;;;;;;;6.18;3.42;;;;;;;;;;6145430;23;20009;-78
2022/10/07 08:43:13;;;;;;;9.73;3.45;;;;;;;;;;6144619;23;20041;-77
2022/10/07 08:45:59;;;;;;;10.50;3.58;;;;;;;;;;6144612;23;20067;-81
2022/10/07 08:48:51;;;;;;;7.15;3.03;;;;;;;;;;6126070;23;20035;-83
2022/10/07 08:51:43;;;;;;;7.57;3.20;;;;;;;;;;6143267;23;20131;-73
2022/10/07 08:54:32;;;;;;;5.90;2.90;;;;;;;;;;6128547;23;20017;-72
2022/10/07 08:57:29;;;;;;;7.65;3.15;;;;;;;;;;6149260;23;20021;-71
2022/10/07 09:00:17;;;;;;;7.97;3.13;;;;;;;;;;6147021;23;20060;-73
2022/10/07 09:03:14;;;;;;;7.53;2.90;;;;;;;;;;6145363;23;20013;-70
2022/10/07 09:06:01;;;;;;;9.77;2.80;;;;;;;;;;6147207;23;20008;-71
2022/10/07 09:08:48;;;;;;;5.82;2.83;;;;;;;;;;6144697;23;20045;-70
2022/10/07 09:11:34;;;;;;;6.38;3.85;;;;;;;;;;6145196;23;20013;-70
2022/10/07 09:14:25;;;;;;;8.38;3.50;;;;;;;;;;6145974;23;20036;-70
2022/10/07 09:17:30;;;;;;;5.93;2.58;;;;;;;;;;6144431;23;20357;-71
2022/10/07 09:20:18;;;;;;;11.48;4.10;;;;;;;;;;6145583;23;20424;-70
2022/10/07 09:23:05;;;;;;;11.05;3.28;;;;;;;;;;6145578;23;20547;-71
2022/10/07 09:25:51;;;;;;;6.03;2.95;;;;;;;;;;6147926;23;20013;-78
2022/10/07 09:28:36;;;;;;;4.72;2.92;;;;;;;;;;6150909;23;20067;-74
2022/10/07 09:31:23;;;;;;;7.03;3.10;;;;;;;;;;6125928;22;20013;-73
2022/10/07 09:34:17;;;;;;;6.35;2.35;;;;;;;;;;6145117;23;20041;-71
2022/10/07 09:37:19;;;;;;;7.45;3.05;;;;;;;;;;6146805;23;20005;-72
2022/10/07 09:40:24;;;;;;;9.82;3.75;;;;;;;;;;6146684;23;20017;-72
2022/10/07 09:43:12;;;;;;;6.85;2.83;;;;;;;;;;6154184;23;20010;-84
2022/10/07 09:45:58;;;;;;;6.97;2.85;;;;;;;;;;6147589;23;20017;-77
2022/10/07 09:48:51;;;;;;;10.43;3.03;;;;;;;;;;6144441;23;20024;-77
2022/10/07 09:51:38;;;;;;;6.20;3.30;;;;;;;;;;6125364;23;20005;-78
2022/10/07 09:54:24;;;;;;;5.65;2.90;;;;;;;;;;6125603;23;20017;-76
2022/10/07 09:57:29;;;;;;;7.10;2.97;;;;;;;;;;6124030;23;20369;-78
2022/10/07 10:00:19;;;;;;;4.60;2.90;;;;;;;;;;6151934;23;20006;-80
2022/10/07 10:03:06;;;;;;;8.68;3.50;;;;;;;;;;6145694;23;20428;-78
2022/10/07 10:05:53;;;;;;;8.35;3.25;;;;;;;;;;6146556;23;20488;-77
2022/10/07 10:08:42;;;;;;;5.03;3.10;;;;;;;;;;6123657;23;20012;-77
2022/10/07 10:12:01;;;;;;;8.88;3.58;;;;;;;;;;6146129;23;20045;-76
2022/10/07 10:14:58;;;;;;;11.40;3.45;;;;;;;;;;6205705;23;20046;-79
2022/10/07 10:17:43;;;;;;;8.38;3.30;;;;;;;;;;6207266;23;20111;-71
2022/10/07 10:20:34;;;;;;;5.90;3.17;;;;;;;;;;6206018;23;20008;-75
2022/10/07 10:23:25;;;;;;;5.95;3.08;;;;;;;;;;6205183;23;20020;-70
2022/10/07 10:26:26;;;;;;;7.13;3.03;;;;;;;;;;6206947;23;20013;-67
2022/10/07 10:29:16;;;;;;;4.78;2.92;;;;;;;;;;6206350;23;20092;-68
2022/10/07 10:32:09;;;;;;;7.07;2.58;;;;;;;;;;6214600;23;20007;-66
2022/10/07 10:35:13;;;;;;;5.70;2.60;;;;;;;;;;6208084;23;20404;-67
2022/10/07 10:38:09;;;;;;;7.43;3.15;;;;;;;;;;6207752;23;20016;-67
2022/10/07 10:40:59;;;;;;;8.52;3.22;;;;;;;;;;6206310;23;20019;-79
2022/10/07 10:44:01;;;;;;;9.52;3.53;;;;;;;;;;6207753;23;20429;-70
2022/10/07 10:46:53;;;;;;;8.48;3.60;;;;;;;;;;6142688;23;20010;-70
2022/10/07 10:49:47;;;;;;;6.35;3.10;;;;;;;;;;6145219;23;20035;-68
2022/10/07 10:52:44;;;;;;;8.63;3.58;;;;;;;;;;6142919;23;20010;-73
2022/10/07 10:55:49;;;;;;;8.60;4.13;;;;;;;;;;6145024;23;20104;-73
2022/10/07 10:58:42;;;;;;;9.23;3.40;;;;;;;;;;6144844;23;20329;-73
2022/10/07 11:01:36;;;;;;;5.57;3.90;;;;;;;;;;6142973;23;20013;-73
2022/10/07 11:04:32;;;;;;;9.55;3.88;;;;;;;;;;6148544;23;20119;-72
2022/10/07 11:07:19;;;;;;;6.43;4.05;;;;;;;;;;6143513;23;20018;-71
2022/10/07 11:10:17;;;;;;;9.60;3.40;;;;;;;;;;6145324;23;20059;-71
2022/10/07 11:13:11;;;;;;;7.50;3.65;;;;;;;;;;6143031;23;20125;-70
2022/10/07 11:16:11;;;;;;;6.13;3.67;;;;;;;;;;6143720;23;20020;-69
2022/10/07 11:19:04;;;;;;;8.45;3.60;;;;;;;;;;6144222;23;20054;-63
2022/10/07 11:21:52;;;;;;;7.18;3.55;;;;;;;;;;6143526;23;20013;-65
2022/10/07 11:24:39;;;;;;;13.18;4.78;;;;;;;;;;6142446;23;20092;-61
2022/10/07 11:27:26;;;;;;;9.20;4.25;;;;;;;;;;6145817;23;20014;-62
2022/10/07 11:30:16;;;;;;;7.22;3.90;;;;;;;;;;6145148;23;20009;-62
2022/10/07 11:33:14;;;;;;;9.40;4.35;;;;;;;;;;6144287;23;20014;-65
2022/10/07 11:36:02;;;;;;;6.15;3.25;;;;;;;;;;6150686;23;20001;-66
2022/10/07 11:38:50;;;;;;;7.28;3.80;;;;;;;;;;6143115;23;20369;-67
2022/10/07 11:41:44;;;;;;;10.57;5.05;;;;;;;;;;6145629;23;20002;-67
2022/10/07 11:44:32;;;;;;;7.32;4.05;;;;;;;;;;6145268;23;20018;-68
2022/10/07 11:47:20;;;;;;;8.38;3.47;;;;;;;;;;6147267;23;20024;-67
2022/10/07 11:50:21;;;;;;;7.28;3.83;;;;;;;;;;6146714;23;20013;-71
2022/10/07 11:53:09;;;;;;;7.18;3.67;;;;;;;;;;6144543;23;20486;-65
2022/10/07 11:55:59;;;;;;;10.45;4.22;;;;;;;;;;6145915;23;20043;-67
2022/10/07 11:58:47;;;;;;;5.78;3.70;;;;;;;;;;6146653;23;20333;-66
2022/10/07 12:01:33;;;;;;;7.55;3.72;;;;;;;;;;6146944;23;20048;-67
2022/10/07 12:04:24;;;;;;;6.35;3.60;;;;;;;;;;6125521;23;20006;-67
2022/10/07 12:07:28;;;;;;;7.57;4.28;;;;;;;;;;6152286;23;20021;-66
2022/10/07 12:10:17;;;;;;;9.60;4.07;;;;;;;;;;6148582;23;20010;-65
2022/10/07 12:13:11;;;;;;;7.75;3.60;;;;;;;;;;6146002;22;20353;-65
2022/10/07 12:16:17;;;;;;;8.57;3.38;;;;;;;;;;6144348;23;20138;-62
2022/10/07 12:19:06;;;;;;;6.95;3.47;;;;;;;;;;6145186;23;20018;-64
2022/10/07 12:22:03;;;;;;;12.33;3.90;;;;;;;;;;6146970;23;20329;-63
2022/10/07 12:25:10;;;;;;;7.80;4.10;;;;;;;;;;6146600;23;20316;-63
2022/10/07 12:27:55;;;;;;;9.13;3.92;;;;;;;;;;6125087;23;20124;-64
2022/10/07 12:30:49;;;;;;;6.88;4.07;;;;;;;;;;6144822;23;20012;-62
2022/10/07 12:33:43;;;;;;;6.80;4.05;;;;;;;;;;6147368;22;20088;-66
2022/10/07 12:36:30;;;;;;;5.93;3.58;;;;;;;;;;6144296;23;20087;-66
2022/10/07 12:39:30;;;;;;;10.50;3.58;;;;;;;;;;6152574;23;19997;-65
2022/10/07 12:42:15;;;;;;;10.15;3.47;;;;;;;;;;6144818;23;20425;-66
2022/10/07 12:45:02;;;;;;;7.15;3.92;;;;;;;;;;6145861;23;20028;-64
2022/10/07 12:47:50;;;;;;;6.35;3.60;;;;;;;;;;6146380;23;20074;-65
2022/10/07 12:50:37;;;;;;;6.03;3.60;;;;;;;;;;6147424;23;20001;-71
2022/10/07 12:53:25;;;;;;;5.20;3.40;;;;;;;;;;6146930;22;20317;-69
2022/10/07 12:56:16;;;;;;;7.13;3.75;;;;;;;;;;6147849;23;20009;-69
2022/10/07 13:02:35;;;;;;;5.85;3.33;;;;;;;;;;6143813;23;20009;-67
2022/10/07 13:05:39;;;;;;;5.43;3.65;;;;;;;;;;6145100;23;20370;-64
2022/10/07 13:08:43;;;;;;;5.93;3.70;;;;;;;;;;6143457;23;20314;-66
2022/10/07 13:11:48;;;;;;;8.63;3.80;;;;;;;;;;6153201;22;20017;-66
2022/10/07 13:14:40;;;;;;;6.53;3.50;;;;;;;;;;6145990;23;20014;-68
2022/10/07 13:17:38;;;;;;;6.38;3.67;;;;;;;;;;6145465;23;20018;-66
2022/10/07 13:20:23;;;;;;;7.90;4.10;;;;;;;;;;6146408;23;20005;-68
2022/10/07 13:23:19;;;;;;;5.32;3.63;;;;;;;;;;6144648;23;20433;-64
2022/10/07 13:26:05;;;;;;;6.05;3.30;;;;;;;;;;6145932;23;20035;-66
2022/10/07 13:28:52;;;;;;;7.22;3.40;;;;;;;;;;6146244;23;20092;-66
2022/10/07 13:31:38;;;;;;;6.57;3.97;;;;;;;;;;6145103;23;20010;-67
2022/10/07 13:34:23;;;;;;;8.18;3.30;;;;;;;;;;6146167;23;20052;-66
2022/10/07 13:37:28;;;;;;;7.70;3.42;;;;;;;;;;6146098;23;20014;-66
2022/10/07 13:40:19;;;;;;;6.15;3.22;;;;;;;;;;6144951;23;20017;-68
2022/10/07 13:43:06;;;;;;;6.82;3.25;;;;;;;;;;6152304;23;20005;-67
2022/10/07 13:45:52;;;;;;;7.85;3.63;;;;;;;;;;6146461;23;20013;-65
2022/10/07 13:48:42;;;;;;;5.53;3.80;;;;;;;;;;6146803;23;20460;-67
2022/10/07 13:51:30;;;;;;;7.47;3.50;;;;;;;;;;6144686;23;20020;-66
2022/10/07 13:54:20;;;;;;;5.07;3.13;;;;;;;;;;6144090;23;20009;-66
2022/10/07 13:57:06;;;;;;;6.38;3.72;;;;;;;;;;6147723;22;20005;-64
2022/10/07 13:59:52;;;;;;;8.30;3.63;;;;;;;;;;6144300;23;20020;-70
2022/10/07 14:02:38;;;;;;;7.25;3.63;;;;;;;;;;6145592;23;20025;-70
2022/10/07 14:05:30;;;;;;;7.93;3.72;;;;;;;;;;6145325;23;20043;-66
2022/10/07 14:08:24;;;;;;;6.57;3.80;;;;;;;;;;6145938;23;20368;-67
2022/10/07 14:11:18;;;;;;;7.28;4.53;;;;;;;;;;6145718;23;20048;-66
2022/10/07 14:14:04;;;;;;;7.05;4.05;;;;;;;;;;6146889;23;20001;-65
2022/10/07 14:16:54;;;;;;;7.47;3.55;;;;;;;;;;6148257;23;20009;-66
2022/10/07 14:19:40;;;;;;;6.90;3.75;;;;;;;;;;6125259;22;20068;-66
2022/10/07 14:22:32;;;;;;;7.13;4.00;;;;;;;;;;6143841;22;20067;-66
2022/10/07 14:25:19;;;;;;;7.57;3.58;;;;;;;;;;6145292;23;20009;-68
2022/10/07 14:28:13;;;;;;;6.78;3.50;;;;;;;;;;6145916;23;20562;-68
2022/10/07 14:37:20;;;;;;;5.57;3.22;;;;;;;;;;6143566;23;20051;-70
2022/10/07 14:40:19;;;;;;;7.43;3.30;;;;;;;;;;6143646;23;20063;-69
2022/10/07 14:43:06;;;;;;;8.43;3.85;;;;;;;;;;6143341;23;20010;-67
2022/10/07 14:45:52;;;;;;;7.05;4.18;;;;;;;;;;6146500;23;20027;-69
2022/10/07 14:48:37;;;;;;;6.00;3.95;;;;;;;;;;6150146;23;20429;-68
2022/10/07 14:51:26;;;;;;;7.43;3.40;;;;;;;;;;6144425;23;20040;-69
2022/10/07 14:54:12;;;;;;;7.82;3.50;;;;;;;;;;6150701;23;20001;-69
2022/10/07 14:56:58;;;;;;;6.45;3.53;;;;;;;;;;6145457;23;20005;-68
2022/10/07 14:59:44;;;;;;;8.63;3.65;;;;;;;;;;6146270;23;20006;-65
2022/10/07 15:02:29;;;;;;;5.85;3.80;;;;;;;;;;6145035;23;20009;-66
2022/10/07 15:05:15;;;;;;;6.18;3.72;;;;;;;;;;6146479;23;20483;-65
2022/10/07 15:08:01;;;;;;;6.68;3.90;;;;;;;;;;6144535;23;20056;-65
2022/10/07 15:10:46;;;;;;;5.15;3.60;;;;;;;;;;6143178;23;20014;-65
2022/10/07 15:13:32;;;;;;;8.10;3.83;;;;;;;;;;6143835;23;20014;-65
2022/10/07 15:16:22;;;;;;;5.00;3.03;;;;;;;;;;6126135;23;20413;-67
2022/10/07 15:19:08;;;;;;;5.30;3.20;;;;;;;;;;6152840;23;20011;-67
2022/10/07 15:21:55;;;;;;;8.20;3.53;;;;;;;;;;6148809;22;20446;-68
2022/10/07 15:24:40;;;;;;;6.93;3.47;;;;;;;;;;6148210;23;20043;-67
2022/10/07 15:27:26;;;;;;;3.58;2.83;;;;;;;;;;6146216;23;20096;-67
2022/10/07 15:30:12;;;;;;;5.38;3.05;;;;;;;;;;6146995;23;20294;-69
2022/10/07 15:32:57;;;;;;;6.32;3.50;;;;;;;;;;6146167;23;20013;-61
2022/10/07 15:35:43;;;;;;;6.55;3.92;;;;;;;;;;6146154;23;20017;-70
2022/10/07 15:38:29;;;;;;;6.07;3.78;;;;;;;;;;6146676;23;20006;-69
2022/10/07 15:41:27;;;;;;;5.70;3.75;;;;;;;;;;6146846;23;20418;-70
2022/10/07 15:44:17;;;;;;;9.48;4.32;;;;;;;;;;6139340;23;20014;-70
2022/10/07 15:47:02;;;;;;;9.52;3.83;;;;;;;;;;6145801;23;20052;-69
2022/10/07 15:49:48;;;;;;;6.75;3.80;;;;;;;;;;6146490;23;20092;-68
2022/10/07 15:52:34;;;;;;;7.35;3.85;;;;;;;;;;6148848;23;20019;-70
2022/10/07 15:55:19;;;;;;;8.10;3.22;;;;;;;;;;6146932;23;20013;-63
2022/10/07 15:58:05;;;;;;;5.72;3.38;;;;;;;;;;6145624;23;20496;-62
2022/10/07 16:00:57;;;;;;;8.27;4.07;;;;;;;;;;6147654;23;20009;-62
2022/10/07 16:03:45;;;;;;;6.55;3.30;;;;;;;;;;6148183;23;20045;-61
2022/10/07 16:06:32;;;;;;;9.32;3.25;;;;;;;;;;6146300;22;20037;-61
2022/10/07 16:09:18;;;;;;;8.38;4.35;;;;;;;;;;6147078;23;20456;-66
2022/10/07 16:12:04;;;;;;;5.35;3.58;;;;;;;;;;6146586;23;20084;-68
2022/10/07 16:14:50;;;;;;;8.85;4.00;;;;;;;;;;6146893;23;20047;-71
2022/10/07 16:17:36;;;;;;;15.18;4.25;;;;;;;;;;6147927;23;20058;-70
2022/10/07 16:20:21;;;;;;;10.35;4.38;;;;;;;;;;6147467;23;20010;-70
2022/10/07 16:23:07;;;;;;;6.88;4.38;;;;;;;;;;6151469;23;20301;-71
2022/10/07 16:25:53;;;;;;;8.60;3.72;;;;;;;;;;6233819;22;20012;-69
2022/10/07 16:31:46;;;;;;;5.55;3.53;;;;;;;;;;6146825;23;20017;-67
2022/10/07 16:34:32;;;;;;;7.75;3.13;;;;;;;;;;6147880;23;20024;-65
2022/10/07 16:37:17;;;;;;;7.10;3.60;;;;;;;;;;6146956;23;20029;-64
2022/10/07 16:40:03;;;;;;;10.85;4.28;;;;;;;;;;6146267;23;20093;-67
2022/10/07 16:42:49;;;;;;;7.25;3.92;;;;;;;;;;6146834;23;20020;-67
2022/10/07 16:45:38;;;;;;;7.90;3.80;;;;;;;;;;6146671;23;20100;-60
2022/10/07 16:48:23;;;;;;;7.05;3.50;;;;;;;;;;6146743;23;20417;-67
2022/10/07 16:51:10;;;;;;;5.80;3.67;;;;;;;;;;6145299;23;20064;-71
2022/10/07 16:54:00;;;;;;;9.15;4.13;;;;;;;;;;6147587;23;20009;-68
2022/10/07 16:56:48;;;;;;;8.50;3.65;;;;;;;;;;6132919;23;20429;-71
2022/10/07 16:59:34;;;;;;;7.32;4.03;;;;;;;;;;6126133;22;20018;-69
2022/10/07 17:02:19;;;;;;;6.63;3.90;;;;;;;;;;6147083;23;20325;-71
2022/10/07 17:05:05;;;;;;;6.45;3.88;;;;;;;;;;6146086;23;20062;-69
2022/10/07 17:07:50;;;;;;;7.10;3.42;;;;;;;;;;6145677;23;20017;-76
2022/10/07 17:10:39;;;;;;;10.68;4.93;;;;;;;;;;6145997;23;20009;-76